createdAt,value
2022-07-31T00:01:26.440Z,48.12
2022-07-31T00:03:53.840Z,47.97
2022-07-31T00:06:23.270Z,47.34
2022-07-31T00:08:50.955Z,48.65
2022-07-31T00:11:18.286Z,47.77
2022-07-31T00:13:58.223Z,48.52
2022-07-31T00:16:26.214Z,48.13
2022-07-31T00:18:53.577Z,47.97
2022-07-31T00:21:26.853Z,47.86
2022-07-31T00:23:56.545Z,48.11
2022-07-31T00:26:24.143Z,48.28
2022-07-31T00:28:52.818Z,47.91
2022-07-31T00:31:21.130Z,47.72
2022-07-31T00:33:48.440Z,47.88
2022-07-31T00:36:18.258Z,47.75
2022-07-31T00:38:45.555Z,47.85
2022-07-31T00:41:12.978Z,47.42
2022-07-31T00:43:40.377Z,48.14
2022-07-31T00:46:14.337Z,48.37
2022-07-31T00:48:42.171Z,49.21
2022-07-31T00:51:09.496Z,49.16
2022-07-31T00:53:38.881Z,48.83
2022-07-31T00:56:06.284Z,48.71
2022-07-31T00:58:33.621Z,48.94
2022-07-31T01:01:01.912Z,49.78
2022-07-31T01:03:29.249Z,49.75
2022-07-31T01:05:56.502Z,49.83
2022-07-31T01:08:24.343Z,50.14
2022-07-31T01:11:04.680Z,50.56
2022-07-31T01:13:52.978Z,50.18
2022-07-31T01:16:20.514Z,50.60
2022-07-31T01:18:47.830Z,50.50
2022-07-31T01:21:25.595Z,50.96
2022-07-31T01:24:15.701Z,51.31
2022-07-31T01:26:59.858Z,50.15
2022-07-31T01:29:28.897Z,51.40
2022-07-31T01:32:07.638Z,50.52
2022-07-31T01:34:52.761Z,50.14
2022-07-31T01:37:26.217Z,52.68
2022-07-31T01:40:07.055Z,53.08
2022-07-31T01:42:34.961Z,53.58
2022-07-31T01:45:02.381Z,53.18
2022-07-31T01:47:30.099Z,53.90
2022-07-31T01:49:58.450Z,54.24
2022-07-31T01:52:26.138Z,54.20
2022-07-31T01:54:55.860Z,53.53
2022-07-31T01:57:23.826Z,53.91
2022-07-31T01:59:58.616Z,53.23
2022-07-31T02:02:46.229Z,52.45
2022-07-31T02:05:15.026Z,52.58
2022-07-31T02:07:42.425Z,52.46
2022-07-31T02:10:13.086Z,49.70
2022-07-31T02:12:40.615Z,51.84
2022-07-31T02:15:09.223Z,51.16
2022-07-31T02:17:41.125Z,48.70
2022-07-31T02:20:24.244Z,50.76
2022-07-31T02:22:58.183Z,50.48
2022-07-31T02:25:33.389Z,53.45
2022-07-31T02:28:03.643Z,49.85
2022-07-31T02:30:39.087Z,51.48
2022-07-31T02:33:12.041Z,51.34
2022-07-31T02:35:43.930Z,49.90
2022-07-31T02:38:22.918Z,50.04
2022-07-31T02:40:53.566Z,50.51
2022-07-31T02:43:20.838Z,49.93
2022-07-31T02:45:48.252Z,50.17
2022-07-31T02:48:15.617Z,49.60
2022-07-31T02:50:47.543Z,48.88
2022-07-31T02:53:17.882Z,52.22
2022-07-31T02:55:45.741Z,52.91
2022-07-31T02:58:15.354Z,50.36
2022-07-31T03:00:47.834Z,50.97
2022-07-31T03:03:18.481Z,48.23
2022-07-31T03:05:49.035Z,50.90
2022-07-31T03:08:16.425Z,49.77
2022-07-31T03:10:47.370Z,49.84
2022-07-31T03:13:17.123Z,49.03
2022-07-31T03:15:50.188Z,50.52
2022-07-31T03:18:19.097Z,50.98
2022-07-31T03:20:46.845Z,50.70
2022-07-31T03:23:14.751Z,52.15
2022-07-31T03:25:52.239Z,52.33
2022-07-31T03:28:23.832Z,51.09
2022-07-31T03:30:51.954Z,49.49
2022-07-31T03:33:27.415Z,49.13
2022-07-31T03:35:54.810Z,50.57
2022-07-31T03:38:40.819Z,50.60
2022-07-31T03:41:11.011Z,50.20
2022-07-31T03:43:44.280Z,50.03
2022-07-31T03:46:18.652Z,50.44
2022-07-31T03:48:52.749Z,50.79
2022-07-31T03:51:23.773Z,52.03
2022-07-31T03:53:52.134Z,52.92
2022-07-31T03:56:49.134Z,52.74
2022-07-31T03:59:18.198Z,52.44
2022-07-31T04:01:57.622Z,52.56
2022-07-31T04:04:58.630Z,51.09
2022-07-31T04:07:26.084Z,51.88
2022-07-31T04:09:53.536Z,51.89
2022-07-31T04:12:23.702Z,51.79
2022-07-31T04:14:51.180Z,51.08
2022-07-31T04:17:22.352Z,51.19
2022-07-31T04:19:49.859Z,50.84
2022-07-31T04:22:17.123Z,50.96
2022-07-31T04:24:46.833Z,51.00
2022-07-31T04:27:28.642Z,51.83
2022-07-31T04:29:56.595Z,50.30
2022-07-31T04:32:24.376Z,51.26
2022-07-31T04:34:55.263Z,50.70
2022-07-31T04:37:22.690Z,50.94
2022-07-31T04:39:50.196Z,50.76
2022-07-31T04:42:17.529Z,50.82
2022-07-31T04:44:45.257Z,50.73
2022-07-31T04:47:12.801Z,50.03
2022-07-31T04:49:47.127Z,50.93
2022-07-31T04:52:17.223Z,51.10
2022-07-31T04:54:49.459Z,53.65
2022-07-31T04:57:21.381Z,53.17
2022-07-31T04:59:59.632Z,52.61
2022-07-31T05:02:34.013Z,50.33
2022-07-31T05:05:01.672Z,51.12
2022-07-31T05:07:35.702Z,50.67
2022-07-31T05:10:08.839Z,49.69
2022-07-31T05:12:36.733Z,48.17
2022-07-31T05:15:04.254Z,51.19
2022-07-31T05:17:35.770Z,50.04
2022-07-31T05:20:43.583Z,48.50
2022-07-31T05:23:30.275Z,50.24
2022-07-31T05:26:15.440Z,49.66
2022-07-31T05:28:49.658Z,49.51
2022-07-31T05:31:19.737Z,50.09
2022-07-31T05:33:47.812Z,49.39
2022-07-31T05:36:15.720Z,48.99
2022-07-31T05:38:43.392Z,48.30
2022-07-31T05:41:33.460Z,48.72
2022-07-31T05:44:24.675Z,48.40
2022-07-31T05:49:41.428Z,47.57
2022-07-31T05:52:08.958Z,47.66
2022-07-31T05:54:38.496Z,47.46
2022-07-31T05:57:33.407Z,47.25
2022-07-31T06:00:04.446Z,47.46
2022-07-31T06:02:41.336Z,46.93
2022-07-31T06:05:29.793Z,46.90
2022-07-31T06:07:57.319Z,47.12
2022-07-31T06:10:27.129Z,46.83
2022-07-31T06:12:55.254Z,46.25
2022-07-31T06:15:23.218Z,45.69
2022-07-31T06:17:50.591Z,47.32
2022-07-31T06:20:27.268Z,45.36
2022-07-31T06:22:55.541Z,46.67
2022-07-31T06:25:25.417Z,45.19
2022-07-31T06:27:59.996Z,44.85
2022-07-31T06:30:30.841Z,43.25
2022-07-31T06:32:58.135Z,45.08
2022-07-31T06:35:32.151Z,44.11
2022-07-31T06:38:24.614Z,46.69
2022-07-31T06:41:43.711Z,45.68
2022-07-31T06:44:46.378Z,45.83
2022-07-31T06:47:32.487Z,44.20
2022-07-31T06:50:06.004Z,43.48
2022-07-31T06:52:45.827Z,42.83
2022-07-31T06:55:13.326Z,43.33
2022-07-31T06:57:41.503Z,44.52
2022-07-31T07:00:19.982Z,43.78
2022-07-31T07:02:48.321Z,44.01
2022-07-31T07:05:16.081Z,44.60
2022-07-31T07:07:43.407Z,44.83
2022-07-31T07:10:10.925Z,44.47
2022-07-31T07:12:57.107Z,44.46
2022-07-31T07:15:24.509Z,44.93
2022-07-31T07:17:51.832Z,43.21
2022-07-31T07:20:55.830Z,43.18
2022-07-31T07:23:23.203Z,44.39
2022-07-31T07:26:07.857Z,45.54
2022-07-31T07:29:07.787Z,44.43
2022-07-31T07:31:35.120Z,44.42
2022-07-31T07:34:06.079Z,45.42
2022-07-31T07:36:33.767Z,44.28
2022-07-31T07:39:09.292Z,45.00
2022-07-31T07:41:38.577Z,44.05
2022-07-31T07:44:09.406Z,43.93
2022-07-31T07:46:37.870Z,43.38
2022-07-31T07:49:06.832Z,44.11
2022-07-31T07:51:59.552Z,44.10
2022-07-31T07:54:40.090Z,43.79
2022-07-31T07:57:22.624Z,44.96
2022-07-31T08:00:08.188Z,44.37
2022-07-31T08:03:02.722Z,44.11
2022-07-31T08:05:32.803Z,42.79
2022-07-31T08:08:00.598Z,42.21
2022-07-31T08:10:50.693Z,43.92
2022-07-31T08:13:26.296Z,42.41
2022-07-31T08:16:22.758Z,44.12
2022-07-31T08:18:54.818Z,43.08
2022-07-31T08:21:22.807Z,44.03
2022-07-31T08:23:52.849Z,41.67
2022-07-31T08:26:20.859Z,44.79
2022-07-31T08:28:49.853Z,42.92
2022-07-31T08:31:18.478Z,44.18
2022-07-31T08:34:02.512Z,42.54
2022-07-31T08:36:29.998Z,42.34
2022-07-31T08:38:57.368Z,41.58
2022-07-31T08:41:42.789Z,45.03
2022-07-31T08:44:11.503Z,45.03
2022-07-31T08:46:39.276Z,42.32
2022-07-31T08:49:09.697Z,43.18
2022-07-31T08:51:51.167Z,41.99
2022-07-31T08:54:37.558Z,42.33
2022-07-31T08:57:05.010Z,41.67
2022-07-31T08:59:44.047Z,41.57
2022-07-31T09:02:11.857Z,42.05
2022-07-31T09:04:52.770Z,44.48
2022-07-31T09:07:21.519Z,42.50
2022-07-31T09:09:51.518Z,41.39
2022-07-31T09:12:32.342Z,42.34
2022-07-31T09:15:04.837Z,42.61
2022-07-31T09:17:35.862Z,43.96
2022-07-31T09:20:04.373Z,40.30
2022-07-31T09:22:34.607Z,43.14
2022-07-31T09:25:21.165Z,42.57
2022-07-31T09:27:48.601Z,41.19
2022-07-31T09:30:16.870Z,41.57
2022-07-31T09:33:16.675Z,44.83
2022-07-31T09:35:59.995Z,43.11
2022-07-31T09:38:32.769Z,44.15
2022-07-31T09:41:55.638Z,42.92
2022-07-31T09:44:15.651Z,40.33
2022-07-31T09:46:44.750Z,37.56
2022-07-31T09:49:12.388Z,36.08
2022-07-31T09:51:41.992Z,37.17
2022-07-31T09:54:21.184Z,36.52
2022-07-31T09:57:10.245Z,39.51
2022-07-31T09:59:38.769Z,40.23
2022-07-31T10:02:06.345Z,37.14
2022-07-31T10:04:33.687Z,36.52
2022-07-31T10:07:01.518Z,36.35
2022-07-31T10:09:29.309Z,35.72
2022-07-31T10:12:16.347Z,37.01
2022-07-31T10:14:44.910Z,35.53
2022-07-31T10:17:13.045Z,33.88
2022-07-31T10:20:35.981Z,34.07
2022-07-31T10:23:42.033Z,36.37
2022-07-31T10:26:09.451Z,37.47
2022-07-31T10:28:37.284Z,37.53
2022-07-31T10:31:04.836Z,37.08
2022-07-31T10:33:47.750Z,38.36
2022-07-31T10:36:34.541Z,35.20
2022-07-31T10:39:08.706Z,37.15
2022-07-31T10:41:55.234Z,34.90
2022-07-31T10:44:27.656Z,32.75
2022-07-31T10:47:14.148Z,34.58
2022-07-31T10:50:00.040Z,37.16
2022-07-31T10:52:38.402Z,33.46
2022-07-31T10:55:18.331Z,34.02
2022-07-31T10:58:08.603Z,37.07
2022-07-31T11:00:43.918Z,33.37
2022-07-31T11:03:46.461Z,30.41
2022-07-31T11:06:21.681Z,29.73
2022-07-31T11:08:54.202Z,30.16
2022-07-31T11:11:41.717Z,30.02
2022-07-31T11:14:31.896Z,29.82
2022-07-31T11:17:17.745Z,28.70
2022-07-31T11:20:47.045Z,31.90
2022-07-31T11:23:17.767Z,27.55
2022-07-31T11:25:46.239Z,25.89
2022-07-31T11:28:27.265Z,25.02
2022-07-31T11:31:01.541Z,22.83
2022-07-31T11:33:42.081Z,25.74
2022-07-31T11:36:11.256Z,27.26
2022-07-31T11:38:39.387Z,26.10
2022-07-31T11:41:08.889Z,25.37
2022-07-31T11:43:40.521Z,25.20
2022-07-31T11:46:07.722Z,22.51
2022-07-31T11:48:42.238Z,23.85
2022-07-31T11:51:16.848Z,21.51
2022-07-31T11:53:44.511Z,20.24
2022-07-31T11:56:11.842Z,20.67
2022-07-31T11:58:45.694Z,19.13
2022-07-31T12:01:13.082Z,20.25
2022-07-31T12:03:40.381Z,21.00
2022-07-31T12:06:07.935Z,18.49
2022-07-31T12:08:35.591Z,16.54
2022-07-31T12:11:03.639Z,20.07
2022-07-31T12:13:31.475Z,20.76
2022-07-31T12:16:04.313Z,21.68
2022-07-31T12:18:33.382Z,16.16
2022-07-31T12:21:01.844Z,19.28
2022-07-31T12:23:42.382Z,18.73
2022-07-31T12:26:28.512Z,23.04
2022-07-31T12:29:13.730Z,16.72
2022-07-31T12:31:48.267Z,16.55
2022-07-31T12:34:31.634Z,20.23
2022-07-31T12:37:02.187Z,18.23
2022-07-31T12:39:53.703Z,16.30
2022-07-31T12:42:40.820Z,18.18
2022-07-31T12:45:19.533Z,18.18
2022-07-31T12:47:52.014Z,18.94
2022-07-31T12:50:55.169Z,17.72
2022-07-31T12:53:22.806Z,18.69
2022-07-31T12:55:55.530Z,19.04
2022-07-31T12:58:22.971Z,18.68
2022-07-31T13:00:50.234Z,17.69
2022-07-31T13:03:17.520Z,18.27
2022-07-31T13:05:51.891Z,18.43
2022-07-31T13:08:19.476Z,19.83
2022-07-31T13:10:46.891Z,21.03
2022-07-31T13:13:14.109Z,22.51
2022-07-31T13:15:43.564Z,21.99
2022-07-31T13:18:11.812Z,21.02
2022-07-31T13:20:39.661Z,23.01
2022-07-31T13:23:07.207Z,21.89
2022-07-31T13:25:34.545Z,22.25
2022-07-31T13:28:01.800Z,20.51
2022-07-31T13:30:29.165Z,20.64
2022-07-31T13:32:56.388Z,19.50
2022-07-31T13:35:27.663Z,19.87
2022-07-31T13:37:56.290Z,17.80
2022-07-31T13:40:42.163Z,17.01
2022-07-31T13:43:09.638Z,18.22
2022-07-31T13:45:37.144Z,17.55
2022-07-31T13:48:08.914Z,20.05
2022-07-31T13:50:39.592Z,19.81
2022-07-31T13:53:07.201Z,19.42
2022-07-31T13:55:54.996Z,19.07
2022-07-31T13:58:22.353Z,18.58
2022-07-31T14:00:50.582Z,18.67
2022-07-31T14:03:19.854Z,21.51
2022-07-31T14:05:54.517Z,22.07
2022-07-31T14:11:01.747Z,24.93
2022-07-31T14:13:29.217Z,24.02
2022-07-31T14:15:56.581Z,25.10
2022-07-31T14:18:25.552Z,24.69
2022-07-31T14:21:21.653Z,25.03
2022-07-31T14:23:50.356Z,24.21
2022-07-31T14:26:20.940Z,23.46
2022-07-31T14:28:49.538Z,23.99
2022-07-31T14:31:17.160Z,24.90
2022-07-31T14:33:44.344Z,24.63
2022-07-31T14:36:11.688Z,23.88
2022-07-31T14:38:38.940Z,23.56
2022-07-31T14:41:07.180Z,24.83
2022-07-31T14:43:34.430Z,24.14
2022-07-31T14:46:01.690Z,25.19
2022-07-31T14:48:29.024Z,25.23
2022-07-31T14:50:56.946Z,25.13
2022-07-31T14:53:33.163Z,24.75
2022-07-31T14:56:03.854Z,24.72
2022-07-31T14:58:31.529Z,24.65
2022-07-31T15:01:09.351Z,25.41
2022-07-31T15:03:42.820Z,25.74
2022-07-31T15:06:38.686Z,25.60
2022-07-31T15:09:00.794Z,25.83
2022-07-31T15:11:59.410Z,25.97
2022-07-31T15:14:16.270Z,26.57
2022-07-31T15:16:43.782Z,27.23
2022-07-31T15:19:22.187Z,27.67
2022-07-31T15:22:15.988Z,28.80
2022-07-31T15:24:48.152Z,28.71
2022-07-31T15:27:17.514Z,28.70
2022-07-31T15:30:00.365Z,28.12
2022-07-31T15:32:38.707Z,27.19
2022-07-31T15:35:07.266Z,27.01
2022-07-31T15:37:35.757Z,29.15
2022-07-31T15:40:05.917Z,29.77
2022-07-31T15:42:37.142Z,29.63
2022-07-31T15:45:08.888Z,28.50
2022-07-31T15:47:36.605Z,29.17
2022-07-31T15:50:07.258Z,29.52
2022-07-31T15:52:41.745Z,28.78
2022-07-31T15:55:09.507Z,27.44
2022-07-31T15:57:40.615Z,27.34
2022-07-31T16:00:14.362Z,27.06
2022-07-31T16:02:45.440Z,27.88
2022-07-31T16:05:21.467Z,26.96
2022-07-31T16:08:32.748Z,28.21
2022-07-31T16:11:02.648Z,27.98
2022-07-31T16:13:37.419Z,28.96
2022-07-31T16:16:09.828Z,28.65
2022-07-31T16:18:43.438Z,28.79
2022-07-31T16:21:13.913Z,29.68
2022-07-31T16:23:46.234Z,28.56
2022-07-31T16:26:14.087Z,28.60
2022-07-31T16:28:49.026Z,28.77
2022-07-31T16:31:29.874Z,28.33
2022-07-31T16:33:59.168Z,29.59
2022-07-31T16:36:31.970Z,29.58
2022-07-31T16:39:19.966Z,30.51
2022-07-31T16:41:54.687Z,29.92
2022-07-31T16:44:29.332Z,30.71
2022-07-31T16:46:59.330Z,29.51
2022-07-31T16:49:36.030Z,29.94
2022-07-31T16:52:06.536Z,31.22
2022-07-31T16:54:34.074Z,30.64
2022-07-31T16:57:06.602Z,31.21
2022-07-31T16:59:34.616Z,29.96
2022-07-31T17:02:25.473Z,30.93
2022-07-31T17:04:55.458Z,31.07
2022-07-31T17:07:23.015Z,30.75
2022-07-31T17:09:55.271Z,32.13
2022-07-31T17:12:22.813Z,33.03
2022-07-31T17:14:57.550Z,30.81
2022-07-31T17:17:25.099Z,32.43
2022-07-31T17:19:57.970Z,33.73
2022-07-31T17:22:34.804Z,33.46
2022-07-31T17:25:10.193Z,33.52
2022-07-31T17:27:37.958Z,32.61
2022-07-31T17:30:05.761Z,32.14
2022-07-31T17:32:37.176Z,30.75
2022-07-31T17:35:05.015Z,32.52
2022-07-31T17:37:35.113Z,33.23
2022-07-31T17:40:12.972Z,30.93
2022-07-31T17:42:55.715Z,32.83
2022-07-31T17:45:23.724Z,32.57
2022-07-31T17:48:02.449Z,32.74
2022-07-31T17:50:31.782Z,32.02
2022-07-31T17:53:03.089Z,33.38
2022-07-31T17:55:32.882Z,33.91
2022-07-31T17:58:00.418Z,32.57
2022-07-31T18:00:32.487Z,33.51
2022-07-31T18:03:02.770Z,34.61
2022-07-31T18:05:32.986Z,34.93
2022-07-31T18:08:01.301Z,33.75
2022-07-31T18:10:53.396Z,32.91
2022-07-31T18:13:25.639Z,36.02
2022-07-31T18:15:53.511Z,35.96
2022-07-31T18:18:24.244Z,33.73
2022-07-31T18:20:54.758Z,33.86
2022-07-31T18:23:29.537Z,36.62
2022-07-31T18:26:00.567Z,36.28
2022-07-31T18:28:31.539Z,33.47
2022-07-31T18:31:03.520Z,34.99
2022-07-31T18:33:30.970Z,34.02
2022-07-31T18:35:58.526Z,37.64
2022-07-31T18:38:26.271Z,37.95
2022-07-31T18:40:53.729Z,36.35
2022-07-31T18:43:24.202Z,38.81
2022-07-31T18:45:51.771Z,37.34
2022-07-31T18:48:20.496Z,37.41
2022-07-31T18:50:58.773Z,39.45
2022-07-31T18:53:31.734Z,40.23
2022-07-31T18:56:03.177Z,40.35
2022-07-31T18:58:32.953Z,40.50
2022-07-31T19:01:02.653Z,39.16
2022-07-31T19:03:34.731Z,40.52
2022-07-31T19:06:02.397Z,40.25
2022-07-31T19:08:32.028Z,39.80
2022-07-31T19:10:59.581Z,38.72
2022-07-31T19:13:27.087Z,40.52
2022-07-31T19:15:54.601Z,39.39
2022-07-31T19:18:27.970Z,39.35
2022-07-31T19:21:17.740Z,40.60
2022-07-31T19:23:47.358Z,40.98
2022-07-31T19:26:15.699Z,39.49
2022-07-31T19:28:45.975Z,41.30
2022-07-31T19:31:13.600Z,42.44
2022-07-31T19:33:43.362Z,42.20
2022-07-31T19:36:11.233Z,42.34
2022-07-31T19:38:40.899Z,42.52
2022-07-31T19:41:08.590Z,42.70
2022-07-31T19:43:36.156Z,41.76
2022-07-31T19:46:11.969Z,42.78
2022-07-31T19:48:41.402Z,42.64
2022-07-31T19:51:09.712Z,44.36
2022-07-31T19:53:39.547Z,44.80
2022-07-31T19:56:07.343Z,44.53
2022-07-31T19:58:35.542Z,44.95
2022-07-31T20:01:03.861Z,45.08
2022-07-31T20:03:31.520Z,44.67
2022-07-31T20:05:59.111Z,45.01
2022-07-31T20:08:28.067Z,45.40
2022-07-31T20:11:04.426Z,44.22
2022-07-31T20:13:32.457Z,44.81
2022-07-31T20:16:00.307Z,43.59
2022-07-31T20:18:28.885Z,42.13
2022-07-31T20:21:05.060Z,43.59
2022-07-31T20:23:34.663Z,44.89
2022-07-31T20:26:02.335Z,42.25
2022-07-31T20:28:32.054Z,45.28
2022-07-31T20:30:59.570Z,43.85
2022-07-31T20:33:29.397Z,45.14
2022-07-31T20:35:56.999Z,44.50
2022-07-31T20:38:25.452Z,41.13
2022-07-31T20:40:55.450Z,44.32
2022-07-31T20:43:24.445Z,44.26
2022-07-31T20:45:52.197Z,44.00
2022-07-31T20:48:22.171Z,44.76
2022-07-31T20:50:53.505Z,44.29
2022-07-31T20:53:22.169Z,43.84
2022-07-31T20:55:50.584Z,41.03
2022-07-31T20:58:18.749Z,40.78
2022-07-31T21:00:47.625Z,39.29
2022-07-31T21:03:17.487Z,42.96
2022-07-31T21:05:48.150Z,39.90
2022-07-31T21:08:16.119Z,38.26
2022-07-31T21:10:47.185Z,41.30
2022-07-31T21:13:14.850Z,40.91
2022-07-31T21:15:45.136Z,38.25
2022-07-31T21:18:16.447Z,42.10
2022-07-31T21:20:51.523Z,40.27
2022-07-31T21:23:29.596Z,42.65
2022-07-31T21:25:58.265Z,40.79
2022-07-31T21:28:30.870Z,41.61
2022-07-31T21:31:04.632Z,40.87
2022-07-31T21:33:32.936Z,44.28
2022-07-31T21:36:01.375Z,43.38
2022-07-31T21:38:28.935Z,42.01
2022-07-31T21:40:56.819Z,42.78
2022-07-31T21:43:30.508Z,42.68
2022-07-31T21:46:07.881Z,43.23
2022-07-31T21:48:35.825Z,42.94
2022-07-31T21:51:06.159Z,39.13
2022-07-31T21:53:33.692Z,41.81
2022-07-31T21:56:02.163Z,42.03
2022-07-31T21:58:29.638Z,43.15
2022-07-31T22:00:57.204Z,43.75
2022-07-31T22:03:26.255Z,42.97
2022-07-31T22:06:12.131Z,44.34
2022-07-31T22:08:39.618Z,44.40
2022-07-31T22:11:07.439Z,43.92
2022-07-31T22:13:34.914Z,44.82
2022-07-31T22:16:02.541Z,42.62
2022-07-31T22:18:31.327Z,45.35
2022-07-31T22:20:58.854Z,44.43
2022-07-31T22:23:27.039Z,44.61
2022-07-31T22:25:54.393Z,44.07
2022-07-31T22:28:22.131Z,43.97
2022-07-31T22:30:49.549Z,44.43
2022-07-31T22:33:17.274Z,45.55
2022-07-31T22:35:44.541Z,41.07
2022-07-31T22:38:11.815Z,40.98
2022-07-31T22:40:39.762Z,41.48
2022-07-31T22:44:10.390Z,42.96
2022-07-31T22:45:58.795Z,41.48
2022-07-31T22:48:27.918Z,41.12
2022-07-31T22:50:55.799Z,42.28
2022-07-31T22:53:26.751Z,41.72
2022-07-31T22:55:54.044Z,41.40
2022-07-31T22:58:23.308Z,43.52
2022-07-31T23:00:50.942Z,43.15
2022-07-31T23:03:18.269Z,42.21
2022-07-31T23:06:13.150Z,42.72
2022-07-31T23:08:32.704Z,41.28
2022-07-31T23:11:02.521Z,42.54
2022-07-31T23:13:29.751Z,42.09
2022-07-31T23:15:56.986Z,40.33
2022-07-31T23:18:27.512Z,39.68
2022-07-31T23:20:55.753Z,41.11
2022-07-31T23:23:22.993Z,43.19
2022-07-31T23:25:53.348Z,42.08
2022-07-31T23:28:20.586Z,41.68
2022-07-31T23:30:47.799Z,40.52
2022-07-31T23:33:17.058Z,39.33
2022-07-31T23:35:44.380Z,38.79
2022-07-31T23:38:11.703Z,41.59
2022-07-31T23:40:38.941Z,41.84
2022-07-31T23:43:06.180Z,40.87
2022-07-31T23:45:33.393Z,41.88
2022-07-31T23:48:01.685Z,41.56
2022-07-31T23:50:29.693Z,41.92
2022-07-31T23:52:57.029Z,42.13
2022-07-31T23:55:27.232Z,40.90
2022-07-31T23:57:57.415Z,42.86
